Time;durP1;ratioP1;P1;durP2;ratioP2;P2;SDS_P1;SDS_P2;PMS_P1;PMS_P2;Temp;Humidity;BMP_temperature;BMP_pressure;BME280_temperature;BME280_humidity;BME280_pressure;Samples;Min_cycle;Max_cycle;Signal;HPM_P1;HPM_P2
2021/12/24 00:00:20;;;;;;;2.50;1.80;;;21.40;48.00;;;;;;6333549;27;20047;-41
2021/12/24 00:03:21;;;;;;;2.22;1.85;;;21.50;48.20;;;;;;6307079;28;20070;-41
2021/12/24 00:06:23;;;;;;;1.98;1.67;;;21.50;48.20;;;;;;6334577;27;20096;-41
2021/12/24 00:09:27;;;;;;;;;;;21.50;48.20;;;;;;6323552;27;20051;-42
2021/12/24 00:12:32;;;;;;;2.92;2.38;;;21.40;48.30;;;;;;6333057;27;19935;-40
2021/12/24 00:15:51;;;;;;;3.38;2.03;;;21.40;48.10;;;;;;6321066;27;20127;-41
2021/12/24 00:18:58;;;;;;;2.00;1.77;;;21.30;48.20;;;;;;6321753;28;20035;-42
2021/12/24 00:22:22;;;;;;;2.80;1.75;;;21.50;48.30;;;;;;6101166;28;20868;-41
2021/12/24 00:35:14;;;;;;;1.70;1.45;;;21.40;48.50;;;;;;6328548;27;20800;-40
2021/12/24 00:38:16;;;;;;;1.83;1.67;;;21.40;48.50;;;;;;6328958;28;20032;-42
2021/12/24 00:41:18;;;;;;;2.05;1.80;;;21.40;48.60;;;;;;6328438;27;20043;-41
2021/12/24 00:44:20;;;;;;;1.95;1.77;;;21.20;48.50;;;;;;6325345;28;20186;-41
2021/12/24 00:47:21;;;;;;;;;;;21.40;48.60;;;;;;6341102;27;20077;-41
2021/12/24 00:50:26;;;;;;;2.53;1.73;;;21.40;48.70;;;;;;6339411;27;19930;-41
2021/12/24 00:56:46;;;;;;;2.97;1.77;;;21.20;48.50;;;;;;6319806;27;20035;-40
2021/12/24 00:59:48;;;;;;;1.88;1.70;;;21.40;48.70;;;;;;6342861;27;20165;-41
2021/12/24 01:02:50;;;;;;;;;;;21.40;48.70;;;;;;6313423;27;20498;-41
2021/12/24 01:05:53;;;;;;;1.90;1.50;;;21.30;48.70;;;;;;6334912;27;19930;-41
2021/12/24 01:08:55;;;;;;;1.75;1.60;;;21.20;48.50;;;;;;6346700;27;20043;-42
2021/12/24 01:11:57;;;;;;;1.70;1.48;;;21.30;48.70;;;;;;6330471;28;20028;-42
2021/12/24 01:15:00;;;;;;;1.80;1.70;;;21.30;48.70;;;;;;6309012;28;20046;-42
2021/12/24 01:18:09;;;;;;;1.90;1.50;;;21.20;48.70;;;;;;6327715;28;20039;-41
2021/12/24 01:21:26;;;;;;;1.90;1.67;;;21.20;48.80;;;;;;6329818;27;20973;-42
2021/12/24 01:24:33;;;;;;;1.70;1.42;;;21.40;48.90;;;;;;6347238;27;20305;-42
2021/12/24 01:27:55;;;;;;;2.03;1.70;;;21.20;48.80;;;;;;6318765;27;20126;-41
2021/12/24 01:41:03;;;;;;;2.22;1.60;;;21.30;48.90;;;;;;6332590;27;20039;-41
2021/12/24 01:44:05;;;;;;;2.10;1.58;;;21.20;48.80;;;;;;6337202;27;20047;-40
2021/12/24 01:47:10;;;;;;;1.60;1.35;;;21.40;48.90;;;;;;6342649;27;20048;-43
2021/12/24 01:50:13;;;;;;;2.00;1.52;;;21.10;48.80;;;;;;6329372;28;20897;-40
2021/12/24 01:53:17;;;;;;;1.90;1.50;;;21.20;48.90;;;;;;6328781;27;20042;-41
2021/12/24 01:56:21;;;;;;;1.60;1.40;;;21.00;48.80;;;;;;6320558;27;21011;-41
2021/12/24 01:59:23;;;;;;;1.70;1.48;;;21.60;49.10;;;;;;6345461;27;20042;-42
2021/12/24 02:02:27;;;;;;;1.40;1.27;;;21.20;48.90;;;;;;6340322;27;20107;-41
2021/12/24 02:05:31;;;;;;;1.40;1.30;;;21.30;49.00;;;;;;6338532;27;20059;-41
2021/12/24 02:08:33;;;;;;;1.75;1.60;;;21.30;49.00;;;;;;6343388;27;20167;-41
2021/12/24 02:11:38;;;;;;;1.73;1.40;;;21.40;49.10;;;;;;6313830;28;20043;-41
2021/12/24 02:14:43;;;;;;;1.33;1.23;;;21.20;49.00;;;;;;6326583;27;20043;-42
2021/12/24 02:18:05;;;;;;;1.55;1.35;;;21.20;49.00;;;;;;6322399;28;20137;-41
2021/12/24 02:30:55;;;;;;;1.60;1.42;;;21.20;49.10;;;;;;6324814;27;20047;-41
2021/12/24 02:33:57;;;;;;;1.48;1.17;;;21.30;49.10;;;;;;6322075;28;20035;-41
2021/12/24 02:37:00;;;;;;;1.30;1.10;;;21.50;49.20;;;;;;6338003;27;20422;-40
2021/12/24 02:40:01;;;;;;;1.15;1.05;;;21.50;49.30;;;;;;6328785;27;20146;-41
2021/12/24 02:43:06;;;;;;;1.40;1.30;;;21.40;49.20;;;;;;6321140;28;20146;-41
2021/12/24 02:46:11;;;;;;;1.67;1.38;;;21.10;49.10;;;;;;6301509;28;20610;-41
2021/12/24 02:49:16;;;;;;;1.10;1.00;;;21.10;49.20;;;;;;6319117;28;20560;-42
2021/12/24 02:55:39;;;;;;;1.27;1.17;;;21.30;49.30;;;;;;6323811;27;20043;-41
2021/12/24 02:58:44;;;;;;;1.25;1.10;;;21.50;49.40;;;;;;6342429;27;20609;-41
2021/12/24 03:01:48;;;;;;;1.50;1.30;;;21.10;49.20;;;;;;6311723;27;20225;-41
2021/12/24 03:04:53;;;;;;;1.20;1.10;;;21.30;49.40;;;;;;6321708;27;20422;-43
2021/12/24 03:07:55;;;;;;;1.50;1.35;;;21.50;49.50;;;;;;6335822;27;20582;-41
2021/12/24 03:10:58;;;;;;;1.30;1.10;;;21.20;49.30;;;;;;6328514;27;20039;-41
2021/12/24 03:14:00;;;;;;;1.20;1.10;;;21.20;49.30;;;;;;6334243;27;20047;-41
2021/12/24 03:17:08;;;;;;;1.45;1.10;;;21.20;49.30;;;;;;6322372;28;20074;-41
2021/12/24 03:20:10;;;;;;;1.40;1.10;;;21.40;49.50;;;;;;6297800;28;20499;-41
2021/12/24 03:23:33;;;;;;;1.48;1.20;;;21.40;49.50;;;;;;6316275;28;20621;-45
2021/12/24 03:26:37;;;;;;;1.50;1.30;;;21.40;49.50;;;;;;6315189;27;20826;-43
2021/12/24 03:29:38;;;;;;;1.23;1.13;;;21.30;49.40;;;;;;6325238;27;20103;-41
2021/12/24 03:32:41;;;;;;;1.30;1.20;;;21.40;49.50;;;;;;6343558;27;20188;-41
2021/12/24 03:35:42;;;;;;;1.30;1.20;;;21.40;49.50;;;;;;6325315;28;20039;-41
2021/12/24 03:38:44;;;;;;;;;;;21.20;49.50;;;;;;6329125;27;20518;-41
2021/12/24 03:41:46;;;;;;;1.10;1.00;;;21.20;49.50;;;;;;6320652;28;20394;-42
2021/12/24 03:44:56;;;;;;;1.08;0.98;;;21.30;49.40;;;;;;6324714;27;20043;-42
2021/12/24 03:48:01;;;;;;;1.20;1.10;;;21.50;49.60;;;;;;6321404;28;20511;-41
2021/12/24 03:51:20;;;;;;;1.30;1.20;;;21.20;49.50;;;;;;6331773;27;20046;-41
2021/12/24 03:57:36;;;;;;;1.35;1.05;;;21.10;49.50;;;;;;6334870;27;20378;-41
2021/12/24 04:00:54;;;;;;;1.13;1.00;;;21.20;49.60;;;;;;6315031;27;20653;-41
2021/12/24 04:04:13;;;;;;;1.15;0.95;;;21.30;49.60;;;;;;6327005;27;20123;-41
2021/12/24 04:07:34;;;;;;;1.13;0.90;;;21.10;49.60;;;;;;6340955;27;20403;-41
2021/12/24 04:10:54;;;;;;;1.17;1.08;;;21.30;49.70;;;;;;6329203;27;20230;-41
2021/12/24 04:14:04;;;;;;;0.80;0.80;;;21.30;49.70;;;;;;6319064;28;20178;-40
2021/12/24 04:17:07;;;;;;;1.20;1.10;;;21.40;49.80;;;;;;6318413;28;20036;-41
2021/12/24 04:26:42;;;;;;;1.30;0.95;;;21.20;49.80;;;;;;6323635;27;20093;-40
2021/12/24 04:29:44;;;;;;;1.17;0.80;;;21.20;49.80;;;;;;6325318;27;20129;-40
2021/12/24 04:32:54;;;;;;;1.10;1.00;;;21.20;49.80;;;;;;6329230;28;20845;-41
2021/12/24 04:36:09;;;;;;;1.00;0.90;;;21.00;49.70;;;;;;6323082;28;20035;-40
2021/12/24 04:39:36;;;;;;;1.25;1.15;;;21.10;49.90;;;;;;6317062;27;20053;-42
2021/12/24 04:52:47;;;;;;;1.00;0.90;;;21.20;50.00;;;;;;6312783;27;20469;-41
2021/12/24 05:02:39;;;;;;;0.80;0.73;;;21.10;50.00;;;;;;6328900;27;20055;-40
2021/12/24 05:05:45;;;;;;;1.10;0.80;;;21.30;50.10;;;;;;6339381;27;20063;-41
2021/12/24 05:08:51;;;;;;;1.00;0.85;;;21.30;50.10;;;;;;6333134;27;22511;-41
2021/12/24 05:11:52;;;;;;;0.80;0.70;;;21.20;50.10;;;;;;6330449;27;20039;-42
2021/12/24 05:14:57;;;;;;;0.93;0.80;;;21.30;50.10;;;;;;6335389;27;20426;-41
2021/12/24 05:21:54;;;;;;;0.70;0.70;;;21.50;50.30;;;;;;6322103;27;20816;-41
2021/12/24 05:24:56;;;;;;;0.60;0.60;;;21.20;50.10;;;;;;6298206;27;20031;-40
2021/12/24 05:27:58;;;;;;;0.80;0.73;;;21.20;50.20;;;;;;6310055;27;20048;-40
2021/12/24 05:31:00;;;;;;;;;;;21.00;50.10;;;;;;6313666;27;20070;-41
2021/12/24 05:34:03;;;;;;;1.05;0.95;;;21.30;50.40;;;;;;6312078;27;20440;-40
2021/12/24 05:37:04;;;;;;;0.77;0.70;;;21.00;50.10;;;;;;6326604;27;21077;-41
2021/12/24 05:40:07;;;;;;;1.00;0.80;;;21.40;50.40;;;;;;6322313;27;20032;-42
2021/12/24 05:43:09;;;;;;;0.90;0.70;;;21.30;50.40;;;;;;6319710;27;20140;-41
2021/12/24 05:46:11;;;;;;;0.82;0.73;;;21.40;50.40;;;;;;6292334;28;20040;-41
2021/12/24 05:49:24;;;;;;;1.40;0.82;;;21.20;50.40;;;;;;6316584;27;20320;-43
2021/12/24 05:52:45;;;;;;;0.65;0.57;;;21.10;50.40;;;;;;6310743;27;20476;-41
2021/12/24 05:56:05;;;;;;;0.80;0.80;;;21.00;50.30;;;;;;6331418;27;20055;-41
2021/12/24 05:59:07;;;;;;;0.63;0.60;;;21.20;50.40;;;;;;6326204;27;20144;-41
2021/12/24 06:02:10;;;;;;;1.00;0.73;;;20.90;50.20;;;;;;6308637;27;20813;-41
2021/12/24 06:05:12;;;;;;;0.77;0.70;;;21.30;50.40;;;;;;6305264;27;20897;-41
2021/12/24 06:08:13;;;;;;;0.90;0.80;;;20.90;50.30;;;;;;6327559;27;20078;-41
2021/12/24 06:11:15;;;;;;;;;;;21.00;50.30;;;;;;6332483;27;20161;-41
2021/12/24 06:14:17;;;;;;;0.90;0.63;;;21.10;50.40;;;;;;6333269;27;19927;-41
2021/12/24 06:17:19;;;;;;;0.82;0.68;;;21.40;50.40;;;;;;6327139;27;20905;-41
2021/12/24 06:20:22;;;;;;;0.68;0.57;;;21.30;50.30;;;;;;6320075;27;20130;-42
2021/12/24 06:23:25;;;;;;;0.50;0.40;;;21.30;50.40;;;;;;6315752;27;20056;-40
2021/12/24 06:26:26;;;;;;;0.50;0.50;;;21.20;50.40;;;;;;6312098;27;20159;-42
2021/12/24 06:29:27;;;;;;;;;;;21.20;50.40;;;;;;6328355;27;20080;-40
2021/12/24 06:32:30;;;;;;;0.30;0.30;;;21.10;50.40;;;;;;6322966;27;19990;-40
2021/12/24 06:35:31;;;;;;;0.90;0.70;;;21.30;50.30;;;;;;6297030;27;20276;-40
2021/12/24 06:38:33;;;;;;;;;;;21.20;50.30;;;;;;6316296;27;20170;-42
2021/12/24 06:41:34;;;;;;;0.60;0.30;;;21.10;50.30;;;;;;6316214;27;19996;-42
2021/12/24 06:44:37;;;;;;;0.80;0.57;;;21.40;50.30;;;;;;6318399;27;20142;-41
2021/12/24 06:47:39;;;;;;;0.77;0.65;;;21.20;50.20;;;;;;6310155;27;20031;-40
2021/12/24 06:50:40;;;;;;;0.63;0.43;;;21.10;50.20;;;;;;6326899;27;20067;-41
2021/12/24 06:53:41;;;;;;;;;;;21.30;50.20;;;;;;6323283;27;20217;-40
2021/12/24 06:56:48;;;;;;;0.57;0.50;;;21.30;50.20;;;;;;6321606;27;19923;-41
2021/12/24 06:59:49;;;;;;;0.65;0.50;;;21.30;50.10;;;;;;6325440;27;20086;-41
2021/12/24 07:02:53;;;;;;;0.47;0.30;;;21.20;50.00;;;;;;6302651;27;20829;-40
2021/12/24 07:05:54;;;;;;;0.40;0.40;;;21.20;50.00;;;;;;6290233;27;20038;-41
2021/12/24 07:08:56;;;;;;;;;;;21.40;50.10;;;;;;6321383;27;20042;-41
2021/12/24 07:11:57;;;;;;;0.55;0.50;;;21.20;49.90;;;;;;6305595;27;20050;-40
2021/12/24 07:14:59;;;;;;;0.50;0.50;;;21.30;49.80;;;;;;6297568;27;20036;-42
2021/12/24 07:18:01;;;;;;;0.40;0.40;;;21.30;49.80;;;;;;6266177;28;20158;-41
2021/12/24 07:21:03;;;;;;;0.40;0.35;;;21.30;49.80;;;;;;6302493;27;20155;-41
2021/12/24 07:24:06;;;;;;;0.43;0.32;;;21.50;49.80;;;;;;6295048;27;20042;-41
2021/12/24 07:27:08;;;;;;;0.30;0.30;;;21.30;49.80;;;;;;6296343;27;20046;-41
2021/12/24 07:30:12;;;;;;;0.82;0.40;;;21.70;49.90;;;;;;6285909;27;20161;-41
2021/12/24 07:33:15;;;;;;;0.40;0.40;;;21.40;49.70;;;;;;6293360;27;20040;-42
2021/12/24 07:36:16;;;;;;;1.75;0.65;;;21.70;49.80;;;;;;6291615;28;20183;-41
2021/12/24 07:39:18;;;;;;;;;;;21.50;49.80;;;;;;6301881;27;20208;-42
2021/12/24 07:42:20;;;;;;;0.65;0.50;;;21.50;49.80;;;;;;6302366;27;19928;-41
2021/12/24 07:45:22;;;;;;;1.85;0.30;;;21.60;49.70;;;;;;6286462;27;20899;-41
2021/12/24 07:48:28;;;;;;;0.50;0.32;;;21.50;49.60;;;;;;6284310;27;20100;-41
2021/12/24 07:54:47;;;;;;;0.40;0.40;;;21.50;49.60;;;;;;6278458;27;20026;-41
2021/12/24 07:58:10;;;;;;;0.70;0.60;;;21.60;49.60;;;;;;6263843;27;20047;-41
2021/12/24 08:01:13;;;;;;;0.60;0.50;;;21.50;49.50;;;;;;6274344;27;20980;-41
2021/12/24 08:04:16;;;;;;;0.35;0.35;;;21.70;49.60;;;;;;6263803;27;20062;-41
2021/12/24 08:07:20;;;;;;;0.40;0.32;;;21.60;49.50;;;;;;6260070;27;20027;-41
2021/12/24 08:10:24;;;;;;;0.50;0.50;;;21.60;49.50;;;;;;6257072;27;20035;-41
2021/12/24 08:13:25;;;;;;;0.52;0.40;;;21.80;49.50;;;;;;6211059;27;20046;-40
2021/12/24 08:16:28;;;;;;;0.60;0.50;;;21.60;49.30;;;;;;6240620;27;20038;-41
2021/12/24 08:19:30;;;;;;;0.80;0.60;;;21.80;49.50;;;;;;6254401;27;20052;-42
2021/12/24 08:22:32;;;;;;;0.40;0.40;;;21.80;49.30;;;;;;6249385;27;20158;-41
2021/12/24 08:25:33;;;;;;;0.40;0.40;;;21.90;49.30;;;;;;6253957;27;21264;-41
2021/12/24 08:28:35;;;;;;;0.90;0.60;;;21.60;49.10;;;;;;6247717;27;20320;-41
2021/12/24 08:31:37;;;;;;;0.65;0.47;;;21.80;49.20;;;;;;6247303;27;20043;-41
2021/12/24 08:34:39;;;;;;;0.52;0.52;;;21.70;49.10;;;;;;6237054;27;20040;-41
2021/12/24 08:37:42;;;;;;;0.55;0.40;;;22.00;49.20;;;;;;6252064;27;20048;-42
2021/12/24 08:40:43;;;;;;;0.45;0.40;;;21.80;49.00;;;;;;6254263;27;21317;-41
2021/12/24 08:43:45;;;;;;;0.40;0.40;;;22.00;49.10;;;;;;6253840;27;20946;-41
2021/12/24 08:46:46;;;;;;;0.43;0.43;;;21.80;48.90;;;;;;6270001;27;21107;-41
2021/12/24 08:49:48;;;;;;;0.52;0.45;;;22.00;48.90;;;;;;6279425;27;20053;-40
2021/12/24 08:52:50;;;;;;;0.70;0.57;;;22.10;48.90;;;;;;6258269;27;20152;-41
2021/12/24 08:55:52;;;;;;;0.60;0.45;;;22.10;48.90;;;;;;6261147;27;20126;-40
2021/12/24 08:58:53;;;;;;;0.50;0.40;;;22.10;49.40;;;;;;6269118;27;20068;-40
2021/12/24 09:01:58;;;;;;;0.60;0.47;;;22.10;48.70;;;;;;6263820;27;20048;-41
2021/12/24 09:05:00;;;;;;;0.90;0.63;;;22.10;48.70;;;;;;6266933;27;20043;-40
2021/12/24 09:08:02;;;;;;;0.63;0.40;;;22.10;48.60;;;;;;6273245;27;20047;-40
2021/12/24 09:11:04;;;;;;;0.43;0.40;;;22.20;48.60;;;;;;6266878;27;20083;-41
2021/12/24 09:14:07;;;;;;;0.77;0.50;;;22.10;48.50;;;;;;6271797;27;20090;-41
2021/12/24 09:17:09;;;;;;;0.50;0.50;;;22.00;48.40;;;;;;6274387;27;20108;-41
2021/12/24 09:20:15;;;;;;;0.90;0.60;;;22.00;48.40;;;;;;6269867;27;20119;-41
2021/12/24 09:23:18;;;;;;;0.75;0.57;;;22.10;48.40;;;;;;6247128;27;20213;-41
2021/12/24 09:26:32;;;;;;;0.57;0.55;;;22.10;48.30;;;;;;6248872;27;20047;-40
2021/12/24 09:29:34;;;;;;;0.82;0.60;;;22.10;48.20;;;;;;6259080;27;20158;-42
2021/12/24 09:32:37;;;;;;;0.90;0.65;;;22.00;48.10;;;;;;6267495;27;20103;-42
2021/12/24 09:35:39;;;;;;;0.82;0.70;;;22.20;48.20;;;;;;6276027;27;20052;-40
2021/12/24 09:38:41;;;;;;;0.60;0.50;;;22.40;48.20;;;;;;6274286;27;20047;-42
2021/12/24 09:41:42;;;;;;;;;;;22.30;48.10;;;;;;6274692;27;20075;-41
2021/12/24 09:44:44;;;;;;;0.77;0.57;;;22.20;48.10;;;;;;6258896;27;19943;-40
2021/12/24 09:47:45;;;;;;;0.65;0.63;;;22.40;48.10;;;;;;6258950;27;21676;-41
2021/12/24 09:50:47;;;;;;;0.73;0.52;;;22.20;48.00;;;;;;6279390;27;20046;-41
2021/12/24 09:53:49;;;;;;;0.90;0.50;;;22.30;48.00;;;;;;6277369;27;20044;-42
2021/12/24 09:56:56;;;;;;;0.52;0.50;;;22.40;48.00;;;;;;6273625;27;21185;-41
2021/12/24 09:59:57;;;;;;;0.50;0.50;;;22.20;47.90;;;;;;6276541;27;20618;-41
2021/12/24 10:03:00;;;;;;;0.50;0.50;;;22.20;47.80;;;;;;6275052;27;21042;-41
2021/12/24 10:06:03;;;;;;;0.70;0.50;;;22.30;47.90;;;;;;6276076;27;21013;-40
2021/12/24 10:09:08;;;;;;;0.50;0.40;;;22.30;47.80;;;;;;6262038;27;20041;-40
2021/12/24 10:12:13;;;;;;;0.68;0.60;;;22.40;47.90;;;;;;6265209;27;20070;-41
2021/12/24 10:15:15;;;;;;;0.50;0.43;;;22.20;47.60;;;;;;6260509;27;20036;-41
2021/12/24 10:18:28;;;;;;;0.60;0.50;;;22.40;47.70;;;;;;6280778;27;20155;-41
2021/12/24 10:21:32;;;;;;;0.63;0.60;;;22.40;47.60;;;;;;6256469;27;20977;-41
2021/12/24 10:24:34;;;;;;;1.20;0.57;;;22.40;47.60;;;;;;6279928;27;20105;-41
2021/12/24 10:27:35;;;;;;;;;;;22.40;48.20;;;;;;6274973;27;20147;-41
2021/12/24 10:30:37;;;;;;;0.52;0.38;;;22.40;47.50;;;;;;6278204;27;19923;-41
2021/12/24 10:33:39;;;;;;;0.70;0.52;;;22.50;47.50;;;;;;6275157;27;20035;-40
2021/12/24 10:36:56;;;;;;;0.65;0.50;;;22.50;47.50;;;;;;6278329;27;20082;-40
2021/12/24 10:40:00;;;;;;;0.43;0.40;;;22.40;47.50;;;;;;6276936;27;20035;-41
2021/12/24 10:43:02;;;;;;;0.52;0.50;;;22.50;47.50;;;;;;6246933;27;20136;-41
2021/12/24 10:46:12;;;;;;;0.80;0.60;;;22.40;47.40;;;;;;6271376;27;20116;-43
2021/12/24 10:49:18;;;;;;;0.52;0.52;;;22.40;47.40;;;;;;6266020;27;20968;-41
2021/12/24 10:55:51;;;;;;;0.60;0.45;;;22.20;47.30;;;;;;6249933;27;20074;-41
2021/12/24 10:58:52;;;;;;;0.70;0.70;;;22.30;47.30;;;;;;6273767;27;20047;-41
2021/12/24 11:02:07;;;;;;;0.43;0.40;;;22.40;47.30;;;;;;6282517;27;20039;-40
2021/12/24 11:05:24;;;;;;;0.80;0.60;;;22.40;47.30;;;;;;6259844;27;20181;-40
2021/12/24 11:08:27;;;;;;;0.70;0.63;;;22.50;47.40;;;;;;6238491;27;21422;-41
2021/12/24 11:11:35;;;;;;;0.55;0.50;;;22.40;47.30;;;;;;6248105;28;20084;-42
2021/12/24 11:14:37;;;;;;;0.50;0.43;;;22.60;47.40;;;;;;6263035;27;20068;-43
2021/12/24 11:17:39;;;;;;;;;;;22.40;47.40;;;;;;6282696;27;20039;-41
2021/12/24 11:20:41;;;;;;;0.80;0.55;;;22.60;47.40;;;;;;6282100;27;20973;-41
2021/12/24 11:23:43;;;;;;;0.57;0.57;;;22.40;47.20;;;;;;6243889;27;20046;-41
2021/12/24 11:26:51;;;;;;;0.70;0.50;;;22.60;47.30;;;;;;6286807;27;20150;-41
2021/12/24 11:29:52;;;;;;;0.85;0.65;;;22.60;47.40;;;;;;6280762;27;20040;-41
2021/12/24 11:32:54;;;;;;;0.77;0.63;;;22.50;47.30;;;;;;6285303;27;20150;-42
2021/12/24 11:35:58;;;;;;;0.90;0.60;;;22.50;47.30;;;;;;6254350;27;20043;-41
2021/12/24 11:39:02;;;;;;;0.65;0.60;;;22.60;47.30;;;;;;6271578;27;20158;-41
2021/12/24 11:42:10;;;;;;;1.27;0.70;;;22.70;47.40;;;;;;6252934;28;20150;-41
2021/12/24 11:45:12;;;;;;;0.93;0.70;;;22.70;47.40;;;;;;6288639;27;20232;-41
2021/12/24 11:48:14;;;;;;;0.70;0.65;;;22.30;47.20;;;;;;6271016;27;20119;-41
2021/12/24 11:51:17;;;;;;;0.88;0.68;;;22.60;47.40;;;;;;6290003;27;20136;-41
2021/12/24 11:54:19;;;;;;;0.88;0.68;;;22.70;47.50;;;;;;6304069;27;20850;-44
2021/12/24 11:57:22;;;;;;;0.80;0.68;;;22.70;47.40;;;;;;6300137;27;20066;-42
2021/12/24 12:00:28;;;;;;;0.82;0.60;;;22.60;47.40;;;;;;6304494;27;20123;-40
2021/12/24 12:03:32;;;;;;;0.90;0.77;;;22.70;47.50;;;;;;6268400;27;20032;-41
2021/12/24 12:06:34;;;;;;;0.80;0.60;;;22.70;47.50;;;;;;6273536;27;20035;-40
2021/12/24 12:09:40;;;;;;;0.55;0.55;;;22.70;47.50;;;;;;6301098;27;20086;-41
2021/12/24 12:12:42;;;;;;;0.77;0.63;;;22.60;47.50;;;;;;6277393;27;20047;-41
2021/12/24 12:15:56;;;;;;;0.63;0.63;;;22.70;47.60;;;;;;6280511;27;20041;-41
2021/12/24 12:19:16;;;;;;;1.00;0.80;;;22.80;47.60;;;;;;6284942;27;20044;-41
2021/12/24 12:22:25;;;;;;;0.60;0.60;;;22.80;47.70;;;;;;6261849;28;20957;-41
2021/12/24 12:25:31;;;;;;;1.10;0.98;;;23.80;48.20;;;;;;6268273;27;20053;-42
2021/12/24 12:28:33;;;;;;;1.00;0.90;;;22.70;47.60;;;;;;6277012;27;20044;-43
2021/12/24 12:31:35;;;;;;;1.02;0.80;;;22.70;47.60;;;;;;6266582;27;20051;-41
2021/12/24 12:34:56;;;;;;;0.90;0.70;;;22.80;47.70;;;;;;6284882;27;20114;-40
2021/12/24 12:37:57;;;;;;;1.07;0.80;;;22.70;47.70;;;;;;6251117;27;20071;-40
2021/12/24 12:41:22;;;;;;;1.10;0.70;;;22.90;47.80;;;;;;6278631;27;20846;-41
2021/12/24 12:44:24;;;;;;;1.30;0.95;;;22.80;47.80;;;;;;6282554;27;21217;-41
2021/12/24 12:47:27;;;;;;;0.70;0.60;;;22.80;47.80;;;;;;6268513;27;20180;-41
2021/12/24 12:50:31;;;;;;;4.93;1.33;;;22.60;47.70;;;;;;6284993;27;20161;-40
2021/12/24 12:53:35;;;;;;;0.93;0.82;;;22.80;47.80;;;;;;6289049;27;20050;-40
2021/12/24 12:56:37;;;;;;;0.80;0.60;;;22.70;47.70;;;;;;6249947;27;20219;-41
2021/12/24 12:59:39;;;;;;;0.88;0.63;;;22.90;47.80;;;;;;6288653;27;20195;-40
2021/12/24 13:03:07;;;;;;;0.90;0.70;;;22.80;47.70;;;;;;6268930;27;20043;-41
2021/12/24 13:06:09;;;;;;;0.68;0.60;;;22.60;47.60;;;;;;6275631;27;20051;-41
2021/12/24 13:09:16;;;;;;;0.88;0.85;;;22.80;47.80;;;;;;6291551;27;20038;-40
2021/12/24 13:12:18;;;;;;;0.90;0.80;;;22.70;47.70;;;;;;6285557;27;20043;-41
2021/12/24 13:15:20;;;;;;;0.80;0.80;;;22.70;47.70;;;;;;6276187;27;20923;-40
2021/12/24 13:18:27;;;;;;;1.08;0.90;;;22.80;47.70;;;;;;6283150;27;20165;-41
2021/12/24 13:24:48;;;;;;;0.70;0.70;;;22.80;47.70;;;;;;6288204;27;21179;-41
2021/12/24 13:27:52;;;;;;;1.08;0.90;;;22.80;47.70;;;;;;6274025;28;20172;-43
2021/12/24 13:30:55;;;;;;;1.05;0.82;;;23.00;47.90;;;;;;6269142;27;20997;-41
2021/12/24 13:33:57;;;;;;;0.82;0.70;;;22.80;47.80;;;;;;6276225;27;20046;-41
2021/12/24 13:37:01;;;;;;;0.73;0.65;;;22.70;47.70;;;;;;6284821;27;20036;-40
2021/12/24 13:40:08;;;;;;;0.70;0.68;;;22.90;47.90;;;;;;6287808;27;20177;-41
2021/12/24 13:43:12;;;;;;;1.02;0.80;;;22.70;48.30;;;;;;6268135;27;20123;-40
2021/12/24 13:46:15;;;;;;;0.70;0.50;;;22.70;47.70;;;;;;6259262;28;20035;-40
2021/12/24 13:49:34;;;;;;;1.02;0.77;;;22.80;47.80;;;;;;6281685;27;20050;-40
2021/12/24 13:55:54;;;;;;;0.90;0.70;;;22.60;47.70;;;;;;6254197;28;21113;-40
2021/12/24 13:58:56;;;;;;;0.73;0.73;;;22.70;47.70;;;;;;6285606;27;21024;-40
2021/12/24 14:02:01;;;;;;;0.70;0.70;;;22.80;47.70;;;;;;6268793;27;21483;-41
2021/12/24 14:05:03;;;;;;;0.80;0.70;;;22.70;47.70;;;;;;6274195;27;21295;-41
2021/12/24 14:08:07;;;;;;;0.70;0.60;;;22.70;47.60;;;;;;6296417;27;20055;-40
2021/12/24 14:11:11;;;;;;;0.50;0.50;;;22.70;47.60;;;;;;6243114;27;20157;-41
2021/12/24 14:14:17;;;;;;;0.65;0.60;;;22.70;47.70;;;;;;6261328;28;21721;-40
2021/12/24 14:17:47;;;;;;;1.00;0.80;;;22.80;47.70;;;;;;6276004;27;20112;-40
2021/12/24 14:21:44;;;;;;;0.80;0.70;;;22.60;47.60;;;;;;6283140;27;20073;-40
2021/12/24 14:24:23;;;;;;;0.80;0.70;;;22.80;47.70;;;;;;6268961;27;22005;-40
2021/12/24 14:27:27;;;;;;;0.70;0.70;;;22.80;47.70;;;;;;6268511;27;20082;-40
2021/12/24 14:30:31;;;;;;;0.93;0.70;;;22.60;47.60;;;;;;6258173;27;20816;-41
2021/12/24 14:33:36;;;;;;;1.30;0.70;;;22.80;47.70;;;;;;6285640;27;20059;-40
2021/12/24 14:36:37;;;;;;;0.80;0.70;;;22.60;47.60;;;;;;6271648;27;20039;-41
2021/12/24 14:39:40;;;;;;;;;;;22.80;47.70;;;;;;6288002;27;20442;-41
2021/12/24 14:42:46;;;;;;;0.60;0.40;;;22.50;47.50;;;;;;6279874;27;19934;-42
2021/12/24 14:45:49;;;;;;;0.70;0.63;;;22.80;47.60;;;;;;6249374;27;20795;-42
2021/12/24 14:48:51;;;;;;;0.80;0.70;;;22.70;47.60;;;;;;6272389;27;20044;-41
2021/12/24 14:51:52;;;;;;;0.60;0.55;;;22.80;47.70;;;;;;6286792;27;20051;-41
2021/12/24 14:55:17;;;;;;;0.52;0.50;;;22.70;47.70;;;;;;6285957;27;20113;-41
2021/12/24 14:58:33;;;;;;;0.90;0.70;;;22.60;47.70;;;;;;6257294;27;20750;-41
2021/12/24 15:01:42;;;;;;;1.20;0.40;;;22.80;47.80;;;;;;6260586;27;20311;-41
2021/12/24 15:04:44;;;;;;;0.80;0.60;;;22.60;47.70;;;;;;6256277;27;20546;-41
2021/12/24 15:07:46;;;;;;;0.55;0.55;;;22.80;47.70;;;;;;6264075;27;20682;-43
2021/12/24 15:10:58;;;;;;;0.65;0.50;;;22.80;47.80;;;;;;6263275;27;20043;-41
2021/12/24 15:14:02;;;;;;;0.68;0.65;;;22.90;47.80;;;;;;6245001;27;20289;-41
2021/12/24 15:17:05;;;;;;;0.65;0.60;;;22.70;47.80;;;;;;6248319;28;20043;-41
2021/12/24 15:20:09;;;;;;;0.50;0.45;;;22.80;47.80;;;;;;6278222;28;20337;-42
2021/12/24 15:23:11;;;;;;;1.25;0.90;;;22.80;47.90;;;;;;6258340;28;20775;-41
2021/12/24 15:26:13;;;;;;;0.60;0.60;;;22.80;47.90;;;;;;6281704;28;21287;-42
2021/12/24 15:29:16;;;;;;;0.98;0.70;;;22.80;47.90;;;;;;6291578;27;21209;-40
2021/12/24 15:32:18;;;;;;;0.90;0.57;;;22.90;48.00;;;;;;6280395;27;20044;-42
2021/12/24 15:35:20;;;;;;;;;;;23.00;48.00;;;;;;6290278;28;20386;-43
2021/12/24 15:38:22;;;;;;;0.80;0.70;;;22.90;48.00;;;;;;6285585;28;19950;-40
2021/12/24 15:41:23;;;;;;;0.70;0.65;;;22.80;47.90;;;;;;6281750;28;20298;-41
2021/12/24 15:44:25;;;;;;;1.13;0.80;;;22.70;47.90;;;;;;6281636;28;20031;-40
2021/12/24 15:47:26;;;;;;;;;;;22.70;47.90;;;;;;6296421;27;20039;-41
2021/12/24 15:50:29;;;;;;;0.70;0.70;;;22.90;48.00;;;;;;6298895;27;19923;-40
2021/12/24 15:53:30;;;;;;;1.00;0.90;;;22.80;47.90;;;;;;6283081;27;20330;-41
2021/12/24 15:56:32;;;;;;;0.70;0.60;;;22.90;48.00;;;;;;6263394;28;20202;-41
2021/12/24 15:59:35;;;;;;;;;;;22.80;48.00;;;;;;6293478;27;20051;-41
2021/12/24 16:02:36;;;;;;;0.80;0.60;;;22.80;48.00;;;;;;6298959;27;20147;-41
2021/12/24 16:05:39;;;;;;;0.77;0.70;;;22.80;47.90;;;;;;6274452;28;20115;-41
2021/12/24 16:08:41;;;;;;;1.00;0.80;;;22.60;47.80;;;;;;6302024;27;20788;-41
2021/12/24 16:11:44;;;;;;;1.10;0.90;;;23.00;48.10;;;;;;6298084;27;20590;-41
2021/12/24 16:14:46;;;;;;;0.65;0.65;;;22.80;48.00;;;;;;6299125;28;20043;-40
2021/12/24 16:17:47;;;;;;;0.90;0.75;;;22.60;47.90;;;;;;6308342;28;20913;-41
2021/12/24 16:20:49;;;;;;;;;;;22.80;48.10;;;;;;6296968;28;20696;-41
2021/12/24 16:23:51;;;;;;;0.73;0.60;;;22.60;47.90;;;;;;6302440;27;19978;-42
2021/12/24 16:26:52;;;;;;;0.95;0.60;;;22.60;47.80;;;;;;6308455;27;20354;-41
2021/12/24 16:29:56;;;;;;;1.20;0.80;;;22.90;48.00;;;;;;6281270;28;20067;-41
2021/12/24 16:32:59;;;;;;;1.60;0.70;;;22.80;47.90;;;;;;6290920;28;20050;-41
2021/12/24 16:36:01;;;;;;;0.93;0.88;;;22.60;47.80;;;;;;6294698;28;20365;-41
2021/12/24 16:39:03;;;;;;;0.70;0.60;;;22.90;47.90;;;;;;6295828;28;20163;-41
2021/12/24 16:42:05;;;;;;;0.93;0.75;;;22.80;47.90;;;;;;6310789;27;20526;-41
2021/12/24 16:45:10;;;;;;;1.63;0.95;;;22.60;47.70;;;;;;6307488;27;20142;-41
2021/12/24 16:48:13;;;;;;;0.77;0.77;;;22.90;47.90;;;;;;6296661;28;20613;-42
2021/12/24 16:51:16;;;;;;;0.95;0.75;;;22.80;47.80;;;;;;6273385;28;20422;-41
2021/12/24 16:54:18;;;;;;;1.17;0.82;;;22.60;47.60;;;;;;6294620;27;20959;-41
2021/12/24 16:57:19;;;;;;;1.10;0.90;;;22.80;47.70;;;;;;6277676;27;20104;-41
2021/12/24 17:00:22;;;;;;;1.23;1.00;;;22.90;47.80;;;;;;6291819;27;20797;-41
2021/12/24 17:03:24;;;;;;;1.00;0.85;;;22.70;47.70;;;;;;6277155;27;21783;-41
2021/12/24 17:06:26;;;;;;;1.35;1.00;;;22.80;47.60;;;;;;6274239;27;20531;-41
2021/12/24 17:09:29;;;;;;;1.23;1.00;;;22.80;47.60;;;;;;6310602;27;20155;-41
2021/12/24 17:12:31;;;;;;;0.80;0.80;;;22.60;47.50;;;;;;6283339;28;20130;-44
2021/12/24 17:15:33;;;;;;;1.10;0.90;;;22.60;47.40;;;;;;6301625;28;20110;-43
2021/12/24 17:18:35;;;;;;;1.00;0.80;;;22.80;47.50;;;;;;6287365;27;20463;-42
2021/12/24 17:21:38;;;;;;;0.80;0.63;;;22.70;47.40;;;;;;6318678;27;20410;-41
2021/12/24 17:24:39;;;;;;;1.23;1.08;;;22.90;47.50;;;;;;6306412;27;20133;-41
2021/12/24 17:27:41;;;;;;;;;;;22.60;47.40;;;;;;6302462;27;20096;-41